sensor_id;sensor_type;location;lat;lon;timestamp;P1;durP1;ratioP1;P2;durP2;ratioP2
21488;SDS011;10906;45.194;5.684;2023-09-18T05:00:56;11.05;;;3.10;;
21488;SDS011;10906;45.194;5.684;2023-09-18T05:03:41;18.02;;;3.60;;
21488;SDS011;10906;45.194;5.684;2023-09-18T05:06:26;11.05;;;3.33;;
21488;SDS011;10906;45.194;5.684;2023-09-18T05:09:10;7.95;;;2.58;;
21488;SDS011;10906;45.194;5.684;2023-09-18T05:11:55;9.68;;;3.10;;
21488;SDS011;10906;45.194;5.684;2023-09-18T05:14:40;16.25;;;3.15;;
21488;SDS011;10906;45.194;5.684;2023-09-18T05:17:43;17.73;;;3.47;;
21488;SDS011;10906;45.194;5.684;2023-09-18T05:20:43;16.60;;;3.15;;
21488;SDS011;10906;45.194;5.684;2023-09-18T05:23:28;12.43;;;3.83;;
21488;SDS011;10906;45.194;5.684;2023-09-18T05:26:43;13.13;;;2.90;;
21488;SDS011;10906;45.194;5.684;2023-09-18T05:29:28;14.18;;;3.78;;
21488;SDS011;10906;45.194;5.684;2023-09-18T05:32:20;11.18;;;3.65;;
21488;SDS011;10906;45.194;5.684;2023-09-18T05:35:05;12.93;;;3.33;;
21488;SDS011;10906;45.194;5.684;2023-09-18T05:38:12;13.32;;;3.75;;
21488;SDS011;10906;45.194;5.684;2023-09-18T05:41:14;16.33;;;4.35;;
21488;SDS011;10906;45.194;5.684;2023-09-18T05:44:08;10.93;;;3.45;;
21488;SDS011;10906;45.194;5.684;2023-09-18T05:49:56;17.08;;;3.85;;
21488;SDS011;10906;45.194;5.684;2023-09-18T05:53:01;19.38;;;4.43;;
21488;SDS011;10906;45.194;5.684;2023-09-18T05:55:55;11.30;;;3.70;;
21488;SDS011;10906;45.194;5.684;2023-09-18T05:58:47;10.70;;;3.83;;
21488;SDS011;10906;45.194;5.684;2023-09-18T06:01:31;11.55;;;4.00;;
21488;SDS011;10906;45.194;5.684;2023-09-18T06:04:17;19.25;;;4.30;;
21488;SDS011;10906;45.194;5.684;2023-09-18T06:07:01;19.08;;;4.45;;
21488;SDS011;10906;45.194;5.684;2023-09-18T06:09:47;13.25;;;3.90;;
21488;SDS011;10906;45.194;5.684;2023-09-18T06:12:31;11.82;;;3.38;;
21488;SDS011;10906;45.194;5.684;2023-09-18T06:15:16;15.60;;;3.95;;
21488;SDS011;10906;45.194;5.684;2023-09-18T06:18:02;13.75;;;3.78;;
21488;SDS011;10906;45.194;5.684;2023-09-18T06:20:47;11.30;;;3.40;;
21488;SDS011;10906;45.194;5.684;2023-09-18T06:23:35;12.48;;;3.28;;
21488;SDS011;10906;45.194;5.684;2023-09-18T06:26:21;6.00;;;2.90;;
21488;SDS011;10906;45.194;5.684;2023-09-18T06:29:06;14.48;;;3.47;;
21488;SDS011;10906;45.194;5.684;2023-09-18T06:31:53;8.35;;;2.80;;
21488;SDS011;10906;45.194;5.684;2023-09-18T06:34:37;12.65;;;3.28;;
21488;SDS011;10906;45.194;5.684;2023-09-18T06:37:26;15.35;;;3.78;;
21488;SDS011;10906;45.194;5.684;2023-09-18T06:40:11;11.85;;;3.08;;
21488;SDS011;10906;45.194;5.684;2023-09-18T06:42:59;9.70;;;2.97;;
21488;SDS011;10906;45.194;5.684;2023-09-18T06:45:44;11.63;;;2.95;;
21488;SDS011;10906;45.194;5.684;2023-09-18T06:48:32;14.60;;;3.55;;
21488;SDS011;10906;45.194;5.684;2023-09-18T06:51:19;10.55;;;2.83;;
21488;SDS011;10906;45.194;5.684;2023-09-18T06:54:04;12.20;;;3.17;;
21488;SDS011;10906;45.194;5.684;2023-09-18T06:56:49;12.60;;;3.15;;
21488;SDS011;10906;45.194;5.684;2023-09-18T06:59:34;16.52;;;3.45;;
21488;SDS011;10906;45.194;5.684;2023-09-18T07:02:18;14.85;;;3.65;;
21488;SDS011;10906;45.194;5.684;2023-09-18T07:05:03;10.27;;;2.85;;
21488;SDS011;10906;45.194;5.684;2023-09-18T07:07:48;7.53;;;3.20;;
21488;SDS011;10906;45.194;5.684;2023-09-18T07:10:33;12.02;;;3.55;;
21488;SDS011;10906;45.194;5.684;2023-09-18T07:13:20;8.13;;;3.33;;
21488;SDS011;10906;45.194;5.684;2023-09-18T07:16:05;7.45;;;2.60;;
21488;SDS011;10906;45.194;5.684;2023-09-18T07:18:50;9.23;;;2.90;;
21488;SDS011;10906;45.194;5.684;2023-09-18T07:21:38;10.20;;;2.60;;
21488;SDS011;10906;45.194;5.684;2023-09-18T07:24:24;11.38;;;2.60;;
21488;SDS011;10906;45.194;5.684;2023-09-18T07:27:09;7.13;;;1.80;;
21488;SDS011;10906;45.194;5.684;2023-09-18T07:29:59;6.90;;;1.83;;
21488;SDS011;10906;45.194;5.684;2023-09-18T07:32:44;5.80;;;2.03;;
21488;SDS011;10906;45.194;5.684;2023-09-18T07:35:28;6.28;;;2.53;;
21488;SDS011;10906;45.194;5.684;2023-09-18T07:48:55;1.45;;;1.00;;
21488;SDS011;10906;45.194;5.684;2023-09-18T07:55:05;5.97;;;1.92;;
21488;SDS011;10906;45.194;5.684;2023-09-18T07:57:53;9.07;;;2.10;;
21488;SDS011;10906;45.194;5.684;2023-09-18T08:13:09;3.95;;;1.83;;
21488;SDS011;10906;45.194;5.684;2023-09-18T08:15:53;6.88;;;1.85;;
21488;SDS011;10906;45.194;5.684;2023-09-18T08:18:41;8.18;;;2.30;;
21488;SDS011;10906;45.194;5.684;2023-09-18T08:21:25;6.90;;;2.15;;
21488;SDS011;10906;45.194;5.684;2023-09-18T08:24:13;8.20;;;1.90;;
21488;SDS011;10906;45.194;5.684;2023-09-18T08:26:57;3.47;;;1.70;;
21488;SDS011;10906;45.194;5.684;2023-09-18T08:29:45;8.82;;;2.50;;
21488;SDS011;10906;45.194;5.684;2023-09-18T08:32:29;6.10;;;2.00;;
21488;SDS011;10906;45.194;5.684;2023-09-18T08:35:20;7.40;;;2.30;;
21488;SDS011;10906;45.194;5.684;2023-09-18T08:38:06;8.50;;;1.67;;
21488;SDS011;10906;45.194;5.684;2023-09-18T08:40:53;6.03;;;2.08;;
21488;SDS011;10906;45.194;5.684;2023-09-18T08:43:38;7.03;;;1.90;;
21488;SDS011;10906;45.194;5.684;2023-09-18T08:46:26;9.88;;;2.88;;
21488;SDS011;10906;45.194;5.684;2023-09-18T08:49:11;7.97;;;2.17;;
21488;SDS011;10906;45.194;5.684;2023-09-18T08:51:56;8.20;;;2.10;;
21488;SDS011;10906;45.194;5.684;2023-09-18T08:54:42;4.65;;;2.10;;
21488;SDS011;10906;45.194;5.684;2023-09-18T08:57:28;6.65;;;2.10;;
21488;SDS011;10906;45.194;5.684;2023-09-18T09:00:14;6.82;;;1.70;;
21488;SDS011;10906;45.194;5.684;2023-09-18T09:03:02;4.53;;;1.73;;
21488;SDS011;10906;45.194;5.684;2023-09-18T09:05:48;7.78;;;1.77;;
21488;SDS011;10906;45.194;5.684;2023-09-18T09:08:33;6.18;;;2.05;;
21488;SDS011;10906;45.194;5.684;2023-09-18T09:11:17;7.72;;;2.00;;
21488;SDS011;10906;45.194;5.684;2023-09-18T09:14:10;8.38;;;2.00;;
21488;SDS011;10906;45.194;5.684;2023-09-18T09:17:01;8.65;;;1.85;;
21488;SDS011;10906;45.194;5.684;2023-09-18T09:19:48;4.80;;;1.75;;
21488;SDS011;10906;45.194;5.684;2023-09-18T09:22:35;3.33;;;1.77;;
21488;SDS011;10906;45.194;5.684;2023-09-18T09:28:28;15.02;;;2.60;;
21488;SDS011;10906;45.194;5.684;2023-09-18T09:31:25;11.27;;;2.75;;
21488;SDS011;10906;45.194;5.684;2023-09-18T09:34:23;14.55;;;2.97;;
21488;SDS011;10906;45.194;5.684;2023-09-18T09:37:10;5.78;;;1.77;;
21488;SDS011;10906;45.194;5.684;2023-09-18T09:39:54;4.35;;;2.28;;
21488;SDS011;10906;45.194;5.684;2023-09-18T09:42:53;4.97;;;2.30;;
21488;SDS011;10906;45.194;5.684;2023-09-18T09:45:44;5.40;;;2.15;;
21488;SDS011;10906;45.194;5.684;2023-09-18T09:48:30;10.25;;;2.50;;
21488;SDS011;10906;45.194;5.684;2023-09-18T09:51:17;12.32;;;2.17;;
21488;SDS011;10906;45.194;5.684;2023-09-18T09:54:04;8.65;;;2.03;;
21488;SDS011;10906;45.194;5.684;2023-09-18T09:56:52;6.55;;;1.77;;
21488;SDS011;10906;45.194;5.684;2023-09-18T09:59:37;9.45;;;2.65;;
21488;SDS011;10906;45.194;5.684;2023-09-18T10:02:23;16.58;;;3.40;;
21488;SDS011;10906;45.194;5.684;2023-09-18T10:05:08;13.13;;;3.53;;
21488;SDS011;10906;45.194;5.684;2023-09-18T10:07:54;10.75;;;2.40;;
21488;SDS011;10906;45.194;5.684;2023-09-18T10:10:46;7.35;;;2.25;;
21488;SDS011;10906;45.194;5.684;2023-09-18T10:13:47;6.30;;;2.58;;
21488;SDS011;10906;45.194;5.684;2023-09-18T10:16:37;7.85;;;2.17;;
21488;SDS011;10906;45.194;5.684;2023-09-18T10:19:44;5.10;;;1.90;;
21488;SDS011;10906;45.194;5.684;2023-09-18T10:22:39;5.30;;;2.08;;
21488;SDS011;10906;45.194;5.684;2023-09-18T10:25:28;6.57;;;1.92;;
21488;SDS011;10906;45.194;5.684;2023-09-18T10:28:15;3.60;;;1.42;;
21488;SDS011;10906;45.194;5.684;2023-09-18T10:30:59;5.22;;;1.60;;
21488;SDS011;10906;45.194;5.684;2023-09-18T10:33:45;3.38;;;1.50;;
21488;SDS011;10906;45.194;5.684;2023-09-18T10:36:32;3.70;;;1.55;;
21488;SDS011;10906;45.194;5.684;2023-09-18T10:39:19;6.13;;;2.08;;
21488;SDS011;10906;45.194;5.684;2023-09-18T10:42:08;5.53;;;2.60;;
21488;SDS011;10906;45.194;5.684;2023-09-18T10:44:52;11.45;;;3.97;;
21488;SDS011;10906;45.194;5.684;2023-09-18T10:47:38;9.95;;;2.17;;
21488;SDS011;10906;45.194;5.684;2023-09-18T10:50:24;16.35;;;3.83;;
21488;SDS011;10906;45.194;5.684;2023-09-18T10:53:10;11.35;;;3.50;;
21488;SDS011;10906;45.194;5.684;2023-09-18T10:55:54;13.10;;;4.00;;
21488;SDS011;10906;45.194;5.684;2023-09-18T10:58:38;8.48;;;3.63;;
21488;SDS011;10906;45.194;5.684;2023-09-18T11:01:23;14.95;;;3.00;;
21488;SDS011;10906;45.194;5.684;2023-09-18T11:04:11;10.85;;;3.05;;
21488;SDS011;10906;45.194;5.684;2023-09-18T11:07:00;9.43;;;3.95;;
21488;SDS011;10906;45.194;5.684;2023-09-18T11:09:47;7.85;;;2.83;;
21488;SDS011;10906;45.194;5.684;2023-09-18T11:12:44;10.02;;;2.78;;
21488;SDS011;10906;45.194;5.684;2023-09-18T11:15:31;8.50;;;3.60;;
21488;SDS011;10906;45.194;5.684;2023-09-18T11:18:17;7.47;;;2.53;;
21488;SDS011;10906;45.194;5.684;2023-09-18T11:21:07;29.23;;;3.75;;
21488;SDS011;10906;45.194;5.684;2023-09-18T11:23:59;13.57;;;3.55;;
21488;SDS011;10906;45.194;5.684;2023-09-18T11:26:44;12.32;;;2.78;;
21488;SDS011;10906;45.194;5.684;2023-09-18T11:29:33;36.53;;;4.38;;
21488;SDS011;10906;45.194;5.684;2023-09-18T11:32:54;12.27;;;2.83;;
21488;SDS011;10906;45.194;5.684;2023-09-18T11:35:37;28.75;;;3.38;;
21488;SDS011;10906;45.194;5.684;2023-09-18T11:38:22;6.43;;;2.75;;
21488;SDS011;10906;45.194;5.684;2023-09-18T11:41:23;6.43;;;3.50;;
21488;SDS011;10906;45.194;5.684;2023-09-18T11:47:02;19.98;;;4.22;;
21488;SDS011;10906;45.194;5.684;2023-09-18T11:49:52;10.60;;;3.22;;
21488;SDS011;10906;45.194;5.684;2023-09-18T11:52:41;31.20;;;5.40;;
21488;SDS011;10906;45.194;5.684;2023-09-18T11:55:27;57.35;;;5.60;;
21488;SDS011;10906;45.194;5.684;2023-09-18T11:58:12;55.13;;;6.57;;
21488;SDS011;10906;45.194;5.684;2023-09-18T12:00:57;7.57;;;3.38;;
21488;SDS011;10906;45.194;5.684;2023-09-18T12:04:03;6.10;;;3.25;;
21488;SDS011;10906;45.194;5.684;2023-09-18T12:06:51;9.27;;;3.90;;
21488;SDS011;10906;45.194;5.684;2023-09-18T12:09:36;6.72;;;3.42;;
21488;SDS011;10906;45.194;5.684;2023-09-18T12:12:21;9.20;;;3.00;;
21488;SDS011;10906;45.194;5.684;2023-09-18T12:15:06;9.02;;;3.60;;
21488;SDS011;10906;45.194;5.684;2023-09-18T12:17:56;6.97;;;3.03;;
21488;SDS011;10906;45.194;5.684;2023-09-18T12:20:50;8.32;;;2.95;;
21488;SDS011;10906;45.194;5.684;2023-09-18T12:23:41;6.43;;;3.30;;
21488;SDS011;10906;45.194;5.684;2023-09-18T12:26:27;8.48;;;3.05;;
21488;SDS011;10906;45.194;5.684;2023-09-18T12:29:14;6.72;;;3.03;;
21488;SDS011;10906;45.194;5.684;2023-09-18T12:31:59;5.97;;;2.30;;
21488;SDS011;10906;45.194;5.684;2023-09-18T12:34:46;8.15;;;2.00;;
21488;SDS011;10906;45.194;5.684;2023-09-18T12:37:30;8.68;;;1.92;;
21488;SDS011;10906;45.194;5.684;2023-09-18T12:40:29;26.25;;;4.05;;
21488;SDS011;10906;45.194;5.684;2023-09-18T12:43:16;27.55;;;3.50;;
21488;SDS011;10906;45.194;5.684;2023-09-18T12:46:01;8.27;;;2.08;;
21488;SDS011;10906;45.194;5.684;2023-09-18T12:48:47;11.45;;;2.80;;
21488;SDS011;10906;45.194;5.684;2023-09-18T12:51:31;20.52;;;2.65;;
21488;SDS011;10906;45.194;5.684;2023-09-18T12:54:17;24.30;;;3.13;;
21488;SDS011;10906;45.194;5.684;2023-09-18T12:57:02;8.68;;;3.05;;
21488;SDS011;10906;45.194;5.684;2023-09-18T12:59:50;6.53;;;2.50;;
21488;SDS011;10906;45.194;5.684;2023-09-18T13:02:37;7.30;;;3.42;;
21488;SDS011;10906;45.194;5.684;2023-09-18T13:05:23;6.25;;;3.10;;
21488;SDS011;10906;45.194;5.684;2023-09-18T13:08:11;7.13;;;2.80;;
21488;SDS011;10906;45.194;5.684;2023-09-18T13:10:56;11.32;;;2.90;;
21488;SDS011;10906;45.194;5.684;2023-09-18T13:13:41;7.68;;;2.72;;
21488;SDS011;10906;45.194;5.684;2023-09-18T13:16:27;9.10;;;2.60;;
21488;SDS011;10906;45.194;5.684;2023-09-18T13:19:12;9.10;;;2.95;;
21488;SDS011;10906;45.194;5.684;2023-09-18T13:21:56;15.48;;;3.28;;
21488;SDS011;10906;45.194;5.684;2023-09-18T13:24:42;6.75;;;2.70;;
21488;SDS011;10906;45.194;5.684;2023-09-18T13:27:26;7.80;;;2.67;;
21488;SDS011;10906;45.194;5.684;2023-09-18T13:30:11;8.52;;;3.00;;
21488;SDS011;10906;45.194;5.684;2023-09-18T13:33:01;5.63;;;2.47;;
21488;SDS011;10906;45.194;5.684;2023-09-18T13:35:51;8.15;;;2.85;;
21488;SDS011;10906;45.194;5.684;2023-09-18T13:38:37;18.60;;;3.45;;
21488;SDS011;10906;45.194;5.684;2023-09-18T13:41:21;10.52;;;3.10;;
21488;SDS011;10906;45.194;5.684;2023-09-18T13:44:06;19.67;;;3.10;;
21488;SDS011;10906;45.194;5.684;2023-09-18T13:46:50;8.00;;;2.83;;
21488;SDS011;10906;45.194;5.684;2023-09-18T13:49:35;14.63;;;3.10;;
21488;SDS011;10906;45.194;5.684;2023-09-18T13:52:19;6.70;;;3.03;;
21488;SDS011;10906;45.194;5.684;2023-09-18T13:55:04;6.40;;;2.90;;
21488;SDS011;10906;45.194;5.684;2023-09-18T13:57:48;7.22;;;2.20;;
21488;SDS011;10906;45.194;5.684;2023-09-18T14:00:33;7.80;;;2.40;;
21488;SDS011;10906;45.194;5.684;2023-09-18T14:03:18;4.68;;;2.10;;
21488;SDS011;10906;45.194;5.684;2023-09-18T14:06:03;4.68;;;2.30;;
21488;SDS011;10906;45.194;5.684;2023-09-18T14:08:49;8.20;;;2.67;;
21488;SDS011;10906;45.194;5.684;2023-09-18T14:11:33;8.57;;;2.33;;
21488;SDS011;10906;45.194;5.684;2023-09-18T14:14:21;4.80;;;1.92;;
21488;SDS011;10906;45.194;5.684;2023-09-18T14:17:06;3.65;;;1.83;;
21488;SDS011;10906;45.194;5.684;2023-09-18T14:19:51;5.63;;;2.40;;
21488;SDS011;10906;45.194;5.684;2023-09-18T14:22:37;11.50;;;2.38;;
21488;SDS011;10906;45.194;5.684;2023-09-18T14:25:21;9.23;;;2.60;;
21488;SDS011;10906;45.194;5.684;2023-09-18T14:28:06;6.25;;;2.50;;
21488;SDS011;10906;45.194;5.684;2023-09-18T14:30:50;6.88;;;2.55;;
21488;SDS011;10906;45.194;5.684;2023-09-18T14:33:35;3.75;;;2.40;;
21488;SDS011;10906;45.194;5.684;2023-09-18T14:36:20;8.32;;;2.70;;
21488;SDS011;10906;45.194;5.684;2023-09-18T14:39:05;6.22;;;2.95;;
21488;SDS011;10906;45.194;5.684;2023-09-18T14:41:53;7.90;;;3.00;;
21488;SDS011;10906;45.194;5.684;2023-09-18T14:44:37;6.68;;;3.08;;
21488;SDS011;10906;45.194;5.684;2023-09-18T14:47:28;5.05;;;2.30;;
21488;SDS011;10906;45.194;5.684;2023-09-18T14:50:13;6.70;;;2.88;;
21488;SDS011;10906;45.194;5.684;2023-09-18T14:52:57;8.20;;;3.30;;
21488;SDS011;10906;45.194;5.684;2023-09-18T14:55:41;8.60;;;3.58;;
21488;SDS011;10906;45.194;5.684;2023-09-18T14:58:26;8.13;;;3.22;;
21488;SDS011;10906;45.194;5.684;2023-09-18T15:01:10;4.00;;;2.88;;
21488;SDS011;10906;45.194;5.684;2023-09-18T15:03:55;7.18;;;3.58;;
21488;SDS011;10906;45.194;5.684;2023-09-18T15:06:40;4.90;;;2.97;;
21488;SDS011;10906;45.194;5.684;2023-09-18T15:09:24;7.40;;;3.17;;
21488;SDS011;10906;45.194;5.684;2023-09-18T15:12:09;7.95;;;3.28;;
21488;SDS011;10906;45.194;5.684;2023-09-18T15:14:54;6.07;;;3.20;;
21488;SDS011;10906;45.194;5.684;2023-09-18T15:17:39;6.97;;;2.65;;
21488;SDS011;10906;45.194;5.684;2023-09-18T15:20:24;6.53;;;3.30;;
21488;SDS011;10906;45.194;5.684;2023-09-18T15:23:10;6.40;;;2.53;;
21488;SDS011;10906;45.194;5.684;2023-09-18T15:25:54;5.80;;;2.55;;
21488;SDS011;10906;45.194;5.684;2023-09-18T15:28:39;7.45;;;3.05;;
21488;SDS011;10906;45.194;5.684;2023-09-18T15:31:24;7.78;;;2.80;;
21488;SDS011;10906;45.194;5.684;2023-09-18T15:34:09;7.40;;;2.97;;
21488;SDS011;10906;45.194;5.684;2023-09-18T15:36:54;3.95;;;2.70;;
21488;SDS011;10906;45.194;5.684;2023-09-18T15:39:42;6.80;;;2.65;;
21488;SDS011;10906;45.194;5.684;2023-09-18T15:42:27;6.47;;;2.50;;
21488;SDS011;10906;45.194;5.684;2023-09-18T15:47:56;5.28;;;2.40;;
21488;SDS011;10906;45.194;5.684;2023-09-18T15:50:40;4.68;;;2.78;;
21488;SDS011;10906;45.194;5.684;2023-09-18T15:53:26;5.32;;;2.20;;
21488;SDS011;10906;45.194;5.684;2023-09-18T15:56:10;7.50;;;2.33;;
21488;SDS011;10906;45.194;5.684;2023-09-18T15:58:55;9.30;;;2.20;;
21488;SDS011;10906;45.194;5.684;2023-09-18T16:01:41;6.07;;;2.38;;
21488;SDS011;10906;45.194;5.684;2023-09-18T16:04:26;8.65;;;2.30;;
21488;SDS011;10906;45.194;5.684;2023-09-18T16:07:10;4.05;;;2.10;;
21488;SDS011;10906;45.194;5.684;2023-09-18T16:09:56;4.95;;;2.00;;
21488;SDS011;10906;45.194;5.684;2023-09-18T16:12:42;5.13;;;1.90;;
21488;SDS011;10906;45.194;5.684;2023-09-18T16:15:27;5.78;;;2.42;;
21488;SDS011;10906;45.194;5.684;2023-09-18T16:18:12;4.32;;;2.55;;
21488;SDS011;10906;45.194;5.684;2023-09-18T16:20:56;7.70;;;2.92;;
21488;SDS011;10906;45.194;5.684;2023-09-18T16:23:41;10.05;;;3.28;;
21488;SDS011;10906;45.194;5.684;2023-09-18T16:26:25;6.75;;;3.65;;
21488;SDS011;10906;45.194;5.684;2023-09-18T16:29:10;9.88;;;3.80;;
21488;SDS011;10906;45.194;5.684;2023-09-18T16:31:54;5.30;;;2.95;;
21488;SDS011;10906;45.194;5.684;2023-09-18T16:34:39;5.95;;;2.85;;
21488;SDS011;10906;45.194;5.684;2023-09-18T16:37:24;8.05;;;3.42;;
21488;SDS011;10906;45.194;5.684;2023-09-18T16:40:12;8.05;;;3.88;;
21488;SDS011;10906;45.194;5.684;2023-09-18T16:42:57;6.68;;;2.80;;
21488;SDS011;10906;45.194;5.684;2023-09-18T16:45:41;6.78;;;3.25;;
21488;SDS011;10906;45.194;5.684;2023-09-18T16:48:30;7.80;;;2.78;;
21488;SDS011;10906;45.194;5.684;2023-09-18T16:51:18;5.63;;;2.95;;
21488;SDS011;10906;45.194;5.684;2023-09-18T16:54:02;6.55;;;2.53;;
21488;SDS011;10906;45.194;5.684;2023-09-18T16:56:47;3.80;;;1.83;;
21488;SDS011;10906;45.194;5.684;2023-09-18T16:59:32;5.93;;;2.70;;
21488;SDS011;10906;45.194;5.684;2023-09-18T17:05:01;6.75;;;2.65;;
21488;SDS011;10906;45.194;5.684;2023-09-18T17:07:48;5.32;;;2.50;;
21488;SDS011;10906;45.194;5.684;2023-09-18T17:10:33;4.80;;;2.80;;
21488;SDS011;10906;45.194;5.684;2023-09-18T17:13:17;8.25;;;2.88;;
21488;SDS011;10906;45.194;5.684;2023-09-18T17:16:02;8.68;;;3.00;;
21488;SDS011;10906;45.194;5.684;2023-09-18T17:18:48;6.18;;;3.30;;
21488;SDS011;10906;45.194;5.684;2023-09-18T17:21:39;5.57;;;2.83;;
21488;SDS011;10906;45.194;5.684;2023-09-18T17:24:24;4.80;;;2.53;;
21488;SDS011;10906;45.194;5.684;2023-09-18T17:27:09;5.65;;;2.40;;
21488;SDS011;10906;45.194;5.684;2023-09-18T17:29:54;3.97;;;2.42;;
21488;SDS011;10906;45.194;5.684;2023-09-18T17:32:39;5.00;;;2.25;;
21488;SDS011;10906;45.194;5.684;2023-09-18T17:35:28;7.75;;;2.35;;
21488;SDS011;10906;45.194;5.684;2023-09-18T17:38:12;6.35;;;2.78;;
21488;SDS011;10906;45.194;5.684;2023-09-18T17:40:57;6.88;;;2.83;;
21488;SDS011;10906;45.194;5.684;2023-09-18T17:43:41;5.57;;;2.50;;
21488;SDS011;10906;45.194;5.684;2023-09-18T17:46:27;5.93;;;2.80;;
21488;SDS011;10906;45.194;5.684;2023-09-18T17:49:11;5.85;;;3.15;;
21488;SDS011;10906;45.194;5.684;2023-09-18T17:51:59;5.18;;;2.95;;
21488;SDS011;10906;45.194;5.684;2023-09-18T17:54:47;7.85;;;3.45;;
21488;SDS011;10906;45.194;5.684;2023-09-18T17:57:31;8.23;;;3.97;;
21488;SDS011;10906;45.194;5.684;2023-09-18T18:00:21;7.38;;;3.33;;
21488;SDS011;10906;45.194;5.684;2023-09-18T18:03:05;14.15;;;4.00;;
21488;SDS011;10906;45.194;5.684;2023-09-18T18:05:50;7.97;;;4.13;;
21488;SDS011;10906;45.194;5.684;2023-09-18T18:08:35;13.35;;;4.53;;
21488;SDS011;10906;45.194;5.684;2023-09-18T18:11:19;11.10;;;4.07;;
21488;SDS011;10906;45.194;5.684;2023-09-18T18:14:07;10.98;;;4.10;;
21488;SDS011;10906;45.194;5.684;2023-09-18T18:16:51;6.47;;;3.85;;
21488;SDS011;10906;45.194;5.684;2023-09-18T18:19:36;7.53;;;4.07;;
21488;SDS011;10906;45.194;5.684;2023-09-18T18:22:24;7.63;;;3.72;;
21488;SDS011;10906;45.194;5.684;2023-09-18T18:25:08;5.47;;;3.75;;
21488;SDS011;10906;45.194;5.684;2023-09-18T18:27:54;10.23;;;4.05;;
21488;SDS011;10906;45.194;5.684;2023-09-18T18:30:39;11.95;;;3.90;;
21488;SDS011;10906;45.194;5.684;2023-09-18T18:33:23;10.20;;;4.05;;
21488;SDS011;10906;45.194;5.684;2023-09-18T18:36:08;7.53;;;3.83;;
21488;SDS011;10906;45.194;5.684;2023-09-18T18:38:53;6.25;;;3.25;;
21488;SDS011;10906;45.194;5.684;2023-09-18T18:41:37;9.07;;;3.42;;
21488;SDS011;10906;45.194;5.684;2023-09-18T18:44:22;6.95;;;3.08;;
21488;SDS011;10906;45.194;5.684;2023-09-18T18:47:07;8.82;;;3.05;;
21488;SDS011;10906;45.194;5.684;2023-09-18T18:49:51;5.22;;;2.28;;
21488;SDS011;10906;45.194;5.684;2023-09-18T18:52:38;8.75;;;3.05;;
21488;SDS011;10906;45.194;5.684;2023-09-18T18:55:22;9.35;;;3.03;;
21488;SDS011;10906;45.194;5.684;2023-09-18T18:58:07;8.02;;;3.10;;
21488;SDS011;10906;45.194;5.684;2023-09-18T19:00:52;6.68;;;2.75;;
21488;SDS011;10906;45.194;5.684;2023-09-18T19:03:42;11.50;;;3.38;;
21488;SDS011;10906;45.194;5.684;2023-09-18T19:06:27;13.88;;;3.20;;
21488;SDS011;10906;45.194;5.684;2023-09-18T19:09:11;9.40;;;3.60;;
21488;SDS011;10906;45.194;5.684;2023-09-18T19:11:58;5.05;;;3.10;;
21488;SDS011;10906;45.194;5.684;2023-09-18T19:14:43;6.00;;;3.05;;
21488;SDS011;10906;45.194;5.684;2023-09-18T19:17:28;5.65;;;3.70;;
21488;SDS011;10906;45.194;5.684;2023-09-18T19:20:12;7.82;;;3.40;;
21488;SDS011;10906;45.194;5.684;2023-09-18T19:22:57;4.47;;;3.00;;
21488;SDS011;10906;45.194;5.684;2023-09-18T19:25:46;6.55;;;3.55;;
21488;SDS011;10906;45.194;5.684;2023-09-18T19:28:35;6.55;;;3.42;;
21488;SDS011;10906;45.194;5.684;2023-09-18T19:31:21;5.78;;;3.47;;
21488;SDS011;10906;45.194;5.684;2023-09-18T19:34:05;7.72;;;3.38;;
21488;SDS011;10906;45.194;5.684;2023-09-18T19:36:51;8.75;;;3.85;;
21488;SDS011;10906;45.194;5.684;2023-09-18T19:39:37;8.85;;;3.53;;
21488;SDS011;10906;45.194;5.684;2023-09-18T19:42:22;7.80;;;3.47;;
21488;SDS011;10906;45.194;5.684;2023-09-18T19:45:08;7.65;;;2.92;;
21488;SDS011;10906;45.194;5.684;2023-09-18T19:47:52;4.97;;;3.33;;
21488;SDS011;10906;45.194;5.684;2023-09-18T19:50:37;6.57;;;3.45;;
21488;SDS011;10906;45.194;5.684;2023-09-18T19:53:22;10.35;;;4.25;;
21488;SDS011;10906;45.194;5.684;2023-09-18T19:56:08;8.40;;;3.85;;
21488;SDS011;10906;45.194;5.684;2023-09-18T19:58:52;11.07;;;4.00;;
21488;SDS011;10906;45.194;5.684;2023-09-18T20:01:37;10.13;;;4.05;;
21488;SDS011;10906;45.194;5.684;2023-09-18T20:04:22;5.78;;;3.85;;
21488;SDS011;10906;45.194;5.684;2023-09-18T20:07:06;9.25;;;4.38;;
21488;SDS011;10906;45.194;5.684;2023-09-18T20:09:56;13.27;;;4.50;;
21488;SDS011;10906;45.194;5.684;2023-09-18T20:12:40;7.10;;;3.47;;
21488;SDS011;10906;45.194;5.684;2023-09-18T20:15:25;10.35;;;4.32;;
21488;SDS011;10906;45.194;5.684;2023-09-18T20:18:09;7.88;;;4.05;;
21488;SDS011;10906;45.194;5.684;2023-09-18T20:20:54;10.75;;;4.32;;
21488;SDS011;10906;45.194;5.684;2023-09-18T20:23:43;11.93;;;4.70;;
21488;SDS011;10906;45.194;5.684;2023-09-18T20:26:28;5.78;;;3.78;;
21488;SDS011;10906;45.194;5.684;2023-09-18T20:29:13;12.55;;;4.15;;
21488;SDS011;10906;45.194;5.684;2023-09-18T20:31:58;9.07;;;3.53;;
21488;SDS011;10906;45.194;5.684;2023-09-18T20:34:42;9.50;;;3.88;;
21488;SDS011;10906;45.194;5.684;2023-09-18T20:37:27;19.92;;;4.30;;
21488;SDS011;10906;45.194;5.684;2023-09-18T20:40:12;10.40;;;4.90;;
21488;SDS011;10906;45.194;5.684;2023-09-18T20:42:56;5.63;;;4.03;;
21488;SDS011;10906;45.194;5.684;2023-09-18T20:48:25;5.80;;;3.42;;
21488;SDS011;10906;45.194;5.684;2023-09-18T20:51:09;7.72;;;3.80;;
21488;SDS011;10906;45.194;5.684;2023-09-18T20:59:24;7.45;;;3.75;;
21488;SDS011;10906;45.194;5.684;2023-09-18T21:02:10;9.10;;;4.00;;
21488;SDS011;10906;45.194;5.684;2023-09-18T21:04:56;16.77;;;5.15;;
21488;SDS011;10906;45.194;5.684;2023-09-18T21:07:43;11.77;;;4.28;;
21488;SDS011;10906;45.194;5.684;2023-09-18T21:10:28;6.85;;;4.00;;
21488;SDS011;10906;45.194;5.684;2023-09-18T21:13:13;14.90;;;4.38;;
21488;SDS011;10906;45.194;5.684;2023-09-18T21:15:58;15.00;;;4.22;;
21488;SDS011;10906;45.194;5.684;2023-09-18T21:18:46;6.90;;;4.43;;
21488;SDS011;10906;45.194;5.684;2023-09-18T21:21:31;6.75;;;3.67;;
21488;SDS011;10906;45.194;5.684;2023-09-18T21:24:17;8.77;;;3.70;;
21488;SDS011;10906;45.194;5.684;2023-09-18T21:27:01;10.00;;;3.20;;
21488;SDS011;10906;45.194;5.684;2023-09-18T21:29:46;9.35;;;4.35;;
21488;SDS011;10906;45.194;5.684;2023-09-18T21:32:32;8.73;;;3.78;;
21488;SDS011;10906;45.194;5.684;2023-09-18T21:35:17;6.22;;;3.33;;
21488;SDS011;10906;45.194;5.684;2023-09-18T21:38:02;5.45;;;3.47;;
21488;SDS011;10906;45.194;5.684;2023-09-18T21:40:47;6.68;;;3.85;;
21488;SDS011;10906;45.194;5.684;2023-09-18T21:46:15;10.15;;;3.58;;
21488;SDS011;10906;45.194;5.684;2023-09-18T21:51:44;11.32;;;3.95;;
21488;SDS011;10906;45.194;5.684;2023-09-18T21:54:28;7.53;;;3.50;;
21488;SDS011;10906;45.194;5.684;2023-09-18T21:57:13;12.32;;;4.28;;
21488;SDS011;10906;45.194;5.684;2023-09-18T21:59:57;9.88;;;3.78;;
